Time;durP1;ratioP1;P1;durP2;ratioP2;P2;SDS_P1;SDS_P2;PMS_P1;PMS_P2;Temp;Humidity;BMP_temperature;BMP_pressure;BME280_temperature;BME280_humidity;BME280_pressure;Samples;Min_cycle;Max_cycle;Signal;HPM_P1;HPM_P2
2022/10/03 00:01:08;;;;;;;12.47;12.00;;;12.50;97.20;;;;;;5033329;28;20967;-81
2022/10/03 00:03:47;;;;;;;12.43;11.93;;;12.50;92.60;;;;;;5040416;28;20458;-81
2022/10/03 00:06:29;;;;;;;12.70;12.00;;;12.50;92.90;;;;;;5031504;28;20468;-82
2022/10/03 00:09:14;;;;;;;12.20;11.70;;;12.40;96.00;;;;;;5036506;28;20465;-81
2022/10/03 00:11:54;;;;;;;12.57;11.97;;;12.50;95.60;;;;;;5042736;28;20472;-81
2022/10/03 00:14:30;;;;;;;11.60;11.00;;;12.50;95.40;;;;;;5036938;28;20457;-81
2022/10/03 00:17:05;;;;;;;13.03;12.20;;;12.50;99.10;;;;;;5039754;28;21050;-80
2022/10/03 00:19:43;;;;;;;12.47;11.87;;;12.60;96.40;;;;;;5028084;28;21013;-81
2022/10/03 00:22:22;;;;;;;12.77;12.17;;;12.60;96.70;;;;;;5040859;28;20468;-81
2022/10/03 00:25:06;;;;;;;12.83;12.00;;;12.60;96.40;;;;;;5035637;28;20466;-81
2022/10/03 00:27:41;;;;;;;13.90;13.10;;;12.60;94.50;;;;;;5037839;28;20469;-80
2022/10/03 00:30:17;;;;;;;13.53;12.60;;;12.60;98.20;;;;;;5036551;28;20560;-80
2022/10/03 00:33:03;;;;;;;12.80;12.20;;;12.60;99.30;;;;;;5039067;28;20552;-81
2022/10/03 00:35:56;;;;;;;12.97;12.27;;;12.60;96.70;;;;;;5033843;28;20532;-80
2022/10/03 00:38:51;;;;;;;12.87;12.20;;;12.50;97.50;;;;;;5041344;28;20497;-81
2022/10/03 00:41:43;;;;;;;12.43;11.80;;;12.50;95.50;;;;;;5038695;28;21028;-80
2022/10/03 00:44:39;;;;;;;12.57;11.97;;;12.50;97.90;;;;;;5039017;28;20451;-80
2022/10/03 00:47:49;;;;;;;12.90;12.30;;;12.50;94.80;;;;;;5042050;28;20500;-81
2022/10/03 00:50:39;;;;;;;12.60;11.90;;;12.50;95.90;;;;;;5033005;28;20469;-82
2022/10/03 00:53:41;;;;;;;12.53;11.90;;;12.50;92.10;;;;;;5042666;28;20488;-82
2022/10/03 00:56:31;;;;;;;12.83;12.07;;;12.50;95.60;;;;;;5035393;28;20468;-81
2022/10/03 00:59:18;;;;;;;12.47;11.97;;;12.50;92.50;;;;;;5025369;28;20590;-81
2022/10/03 01:01:47;;;;;;;12.87;12.27;;;12.50;95.50;;;;;;5039394;28;20457;-82
2022/10/03 01:04:40;;;;;;;12.47;11.83;;;12.50;94.80;;;;;;5043267;28;21081;-80
2022/10/03 01:07:27;;;;;;;12.10;11.60;;;12.50;95.40;;;;;;5028361;28;20477;-82
2022/10/03 01:10:10;;;;;;;12.43;11.90;;;12.50;92.50;;;;;;5023544;28;20463;-82
2022/10/03 01:12:51;;;;;;;12.00;11.50;;;12.50;91.90;;;;;;5038888;28;20593;-80
2022/10/03 01:15:29;;;;;;;13.30;12.70;;;12.50;94.40;;;;;;5038549;28;21148;-81
2022/10/03 01:18:15;;;;;;;12.80;12.30;;;12.50;90.20;;;;;;5040421;28;20493;-83
2022/10/03 01:20:52;;;;;;;13.27;12.57;;;12.50;96.20;;;;;;5038355;28;20811;-80
2022/10/03 01:23:42;;;;;;;12.17;11.67;;;12.50;95.00;;;;;;5035588;28;20458;-80
2022/10/03 01:26:28;;;;;;;12.00;11.50;;;12.50;94.00;;;;;;5042009;28;20463;-80
2022/10/03 01:31:55;;;;;;;12.90;12.10;;;12.50;87.30;;;;;;5037213;28;20890;-80
2022/10/03 01:34:28;;;;;;;13.70;13.10;;;12.60;90.90;;;;;;5018522;28;21274;-80
2022/10/03 01:37:10;;;;;;;11.93;11.37;;;12.50;77.40;;;;;;5042198;28;20484;-80
2022/10/03 01:39:46;;;;;;;11.70;11.30;;;12.50;77.20;;;;;;5036045;28;20822;-80
2022/10/03 01:42:20;;;;;;;13.30;12.40;;;12.50;67.20;;;;;;5024911;28;20851;-81
2022/10/03 01:45:10;;;;;;;12.57;12.00;;;12.40;62.90;;;;;;5041278;28;20882;-81
2022/10/03 01:47:50;;;;;;;12.17;11.67;;;12.30;62.70;;;;;;5037282;28;20877;-80
2022/10/03 01:50:28;;;;;;;11.83;11.13;;;12.30;52.30;;;;;;5041037;28;20450;-81
2022/10/03 01:53:04;;;;;;;11.33;10.83;;;12.20;51.40;;;;;;5041638;28;20568;-81
2022/10/03 01:55:55;;;;;;;10.93;10.43;;;12.10;56.90;;;;;;5040022;28;20508;-82
2022/10/03 01:58:30;;;;;;;10.80;10.40;;;12.10;56.30;;;;;;5017742;28;21022;-80
2022/10/03 02:01:08;;;;;;;11.33;10.80;;;12.10;47.10;;;;;;5034659;28;20506;-81
2022/10/03 02:03:44;;;;;;;10.63;10.13;;;12.10;49.10;;;;;;5039675;28;20544;-81
2022/10/03 02:06:21;;;;;;;10.83;10.10;;;12.10;50.90;;;;;;5022351;28;20458;-80
2022/10/03 02:08:56;;;;;;;10.13;9.53;;;12.00;50.90;;;;;;5044427;28;20452;-80
2022/10/03 02:11:32;;;;;;;10.70;10.10;;;11.90;62.70;;;;;;5034965;28;21058;-80
2022/10/03 02:14:14;;;;;;;10.77;10.03;;;11.90;61.00;;;;;;5043726;28;20461;-81
2022/10/03 02:16:45;;;;;;;10.10;9.70;;;11.90;62.50;;;;;;5036306;28;21220;-81
2022/10/03 02:19:21;;;;;;;9.63;9.23;;;12.00;63.40;;;;;;5042652;28;20875;-81
2022/10/03 02:21:52;;;;;;;9.40;9.10;;;12.10;56.60;;;;;;5038973;28;20454;-81
2022/10/03 02:24:43;;;;;;;9.63;9.33;;;12.00;46.20;;;;;;5041500;28;20955;-80
2022/10/03 02:27:51;;;;;;;10.63;10.23;;;12.00;62.60;;;;;;5040218;28;20480;-81
2022/10/03 02:30:24;;;;;;;9.73;9.33;;;12.10;54.90;;;;;;5033600;28;20461;-81
2022/10/03 02:33:22;;;;;;;9.80;9.40;;;12.00;57.70;;;;;;5036990;28;22211;-81
2022/10/03 02:36:26;;;;;;;9.23;8.73;;;12.00;46.60;;;;;;5033267;28;21009;-81
2022/10/03 02:39:25;;;;;;;10.07;9.63;;;12.00;54.30;;;;;;5006165;28;20536;-81
2022/10/03 02:42:29;;;;;;;9.70;9.03;;;12.00;57.20;;;;;;5041892;28;20461;-81
2022/10/03 02:45:39;;;;;;;9.20;8.87;;;12.00;60.70;;;;;;5040551;28;20453;-81
2022/10/03 02:48:31;;;;;;;9.83;9.23;;;12.00;49.30;;;;;;5036731;28;20472;-81
2022/10/03 02:51:37;;;;;;;9.97;9.50;;;11.90;50.50;;;;;;5031072;28;20473;-81
2022/10/03 02:54:48;;;;;;;9.57;9.10;;;11.90;49.30;;;;;;5038867;28;20843;-81
2022/10/03 02:58:10;;;;;;;9.40;8.80;;;11.80;52.80;;;;;;5011986;28;20492;-81
2022/10/03 03:01:16;;;;;;;8.97;8.60;;;11.70;44.60;;;;;;4996884;28;20495;-81
2022/10/03 03:04:08;;;;;;;8.90;8.60;;;11.70;50.20;;;;;;5002733;28;20497;-82
2022/10/03 03:06:58;;;;;;;9.17;8.70;;;11.60;46.20;;;;;;5030750;28;20483;-82
2022/10/03 03:09:52;;;;;;;8.77;8.37;;;11.70;46.40;;;;;;5040497;28;20440;-82
2022/10/03 03:13:09;;;;;;;10.13;9.63;;;11.60;39.10;;;;;;5026101;28;20484;-82
2022/10/03 03:16:20;;;;;;;9.20;8.80;;;11.50;46.20;;;;;;4979696;28;20576;-82
2022/10/03 03:19:10;;;;;;;9.03;8.63;;;11.50;50.40;;;;;;5033547;28;20836;-82
2022/10/03 03:21:44;;;;;;;10.10;9.20;;;11.50;58.80;;;;;;5017939;28;20467;-83
2022/10/03 03:24:47;;;;;;;11.03;10.33;;;11.50;50.20;;;;;;5038301;28;20436;-81
2022/10/03 03:27:40;;;;;;;10.13;9.30;;;11.50;50.80;;;;;;5044808;28;20471;-82
2022/10/03 03:30:12;;;;;;;11.13;10.40;;;11.40;38.40;;;;;;5038198;28;20465;-81
2022/10/03 03:32:56;;;;;;;11.20;10.30;;;11.40;37.70;;;;;;5044432;28;21014;-81
2022/10/03 03:35:40;;;;;;;10.70;9.83;;;11.40;46.60;;;;;;5037736;28;20462;-81
2022/10/03 03:38:20;;;;;;;10.20;9.67;;;11.30;24.60;;;;;;5035939;28;20613;-81
2022/10/03 03:41:01;;;;;;;9.97;9.37;;;11.30;27.70;;;;;;5032254;28;20459;-80
2022/10/03 03:43:44;;;;;;;9.67;9.07;;;11.20;22.90;;;;;;5038941;28;20435;-81
2022/10/03 03:46:22;;;;;;;9.43;8.73;;;11.10;21.80;;;;;;5013306;28;20521;-80
2022/10/03 03:49:25;;;;;;;10.20;9.23;;;11.10;41.90;;;;;;5038963;28;20485;-80
2022/10/03 03:52:05;;;;;;;10.70;9.90;;;11.30;46.40;;;;;;5020373;28;20509;-81
2022/10/03 03:55:07;;;;;;;12.53;11.10;;;11.30;40.70;;;;;;5043516;28;20483;-81
2022/10/03 03:57:56;;;;;;;12.17;11.07;;;11.40;54.90;;;;;;5042675;28;20475;-82
2022/10/03 04:00:33;;;;;;;13.60;11.40;;;11.40;57.70;;;;;;5037642;28;20483;-82
2022/10/03 04:03:21;;;;;;;15.93;12.20;;;11.40;64.60;;;;;;5038836;28;21275;-81
2022/10/03 04:06:07;;;;;;;12.17;11.00;;;11.40;67.20;;;;;;5045321;28;20447;-84
2022/10/03 04:09:01;;;;;;;11.80;10.83;;;11.40;70.30;;;;;;5013123;28;20482;-81
2022/10/03 04:11:37;;;;;;;13.37;12.00;;;11.40;67.90;;;;;;5035614;28;20545;-85
2022/10/03 04:14:31;;;;;;;13.20;11.90;;;11.50;67.60;;;;;;5043100;28;20482;-81
2022/10/03 04:20:25;;;;;;;13.00;11.80;;;11.40;80.20;;;;;;5038658;28;20488;-82
2022/10/03 04:23:06;;;;;;;11.53;10.53;;;11.50;82.90;;;;;;5040369;28;20540;-80
2022/10/03 04:25:54;;;;;;;12.30;11.17;;;11.40;77.40;;;;;;5045393;28;20515;-80
2022/10/03 04:28:52;;;;;;;12.27;11.00;;;11.40;80.10;;;;;;5042785;28;21022;-80
2022/10/03 04:31:37;;;;;;;14.80;13.00;;;11.40;83.50;;;;;;5039856;28;20840;-80
2022/10/03 04:34:30;;;;;;;13.63;12.60;;;11.40;73.90;;;;;;5037915;28;20516;-80
2022/10/03 04:37:24;;;;;;;12.47;11.27;;;11.40;75.60;;;;;;5030834;28;20575;-80
2022/10/03 04:40:06;;;;;;;12.50;11.10;;;11.40;83.00;;;;;;5042376;28;20550;-80
2022/10/03 04:42:49;;;;;;;12.70;11.60;;;11.40;89.60;;;;;;5040734;28;20460;-80
2022/10/03 04:45:43;;;;;;;13.00;12.00;;;11.50;89.10;;;;;;5033416;28;20445;-81
2022/10/03 04:48:17;;;;;;;13.43;11.80;;;11.50;78.60;;;;;;5046473;28;20533;-80
2022/10/03 04:50:56;;;;;;;12.00;10.90;;;11.50;87.30;;;;;;5041587;28;21225;-80
2022/10/03 04:53:38;;;;;;;13.13;11.67;;;11.50;85.30;;;;;;5045013;28;20525;-80
2022/10/03 04:56:20;;;;;;;12.87;11.70;;;11.50;90.80;;;;;;5039827;28;20447;-80
2022/10/03 04:58:56;;;;;;;12.57;11.47;;;11.60;88.60;;;;;;5040312;28;20452;-80
2022/10/03 05:01:28;;;;;;;11.53;10.53;;;11.50;79.70;;;;;;5038405;28;20455;-81
2022/10/03 05:04:10;;;;;;;11.00;10.03;;;11.50;82.90;;;;;;5028765;28;20493;-80
2022/10/03 05:06:48;;;;;;;10.90;9.90;;;11.40;73.90;;;;;;5022742;28;20930;-80
2022/10/03 05:09:26;;;;;;;12.63;10.83;;;11.40;75.00;;;;;;5037277;28;20456;-81
2022/10/03 05:12:02;;;;;;;11.10;10.00;;;11.50;70.10;;;;;;5041684;28;20980;-81
2022/10/03 05:14:48;;;;;;;12.00;10.90;;;11.40;56.80;;;;;;5041416;28;20488;-81
2022/10/03 05:17:24;;;;;;;10.40;9.70;;;11.40;61.50;;;;;;5020188;28;21102;-80
2022/10/03 05:20:22;;;;;;;10.53;9.83;;;11.50;45.50;;;;;;5045636;28;20476;-80
2022/10/03 05:22:59;;;;;;;10.90;10.03;;;11.50;41.30;;;;;;5038085;28;20503;-82
2022/10/03 05:25:40;;;;;;;11.60;10.50;;;11.40;43.70;;;;;;5042519;28;20506;-80
2022/10/03 05:28:22;;;;;;;12.43;11.33;;;11.50;51.40;;;;;;5034028;28;20591;-81
2022/10/03 05:30:58;;;;;;;11.83;11.03;;;11.40;58.70;;;;;;5036017;28;20826;-82
2022/10/03 05:33:40;;;;;;;15.63;11.83;;;11.40;62.00;;;;;;5039061;28;20476;-81
2022/10/03 05:36:26;;;;;;;13.93;12.63;;;11.50;56.70;;;;;;5042224;28;20782;-80
2022/10/03 05:39:31;;;;;;;11.93;10.83;;;11.50;53.40;;;;;;5044062;28;20514;-81
2022/10/03 05:42:14;;;;;;;12.77;11.53;;;11.60;54.50;;;;;;5039740;28;20550;-81
2022/10/03 05:45:01;;;;;;;12.93;11.73;;;11.60;58.50;;;;;;5037005;28;21032;-80
2022/10/03 05:47:47;;;;;;;11.87;10.90;;;11.50;59.80;;;;;;5037695;28;20501;-81
2022/10/03 05:50:46;;;;;;;11.60;10.80;;;11.60;55.20;;;;;;5038288;28;20436;-79
2022/10/03 05:53:37;;;;;;;12.03;11.23;;;11.60;42.80;;;;;;5020015;28;20459;-78
2022/10/03 05:56:12;;;;;;;11.77;10.37;;;11.50;47.60;;;;;;5036887;28;20460;-80
2022/10/03 05:59:21;;;;;;;10.70;10.00;;;11.50;50.20;;;;;;5034336;28;20449;-80
2022/10/03 06:02:27;;;;;;;11.10;10.40;;;11.50;47.30;;;;;;5039882;28;20578;-80
2022/10/03 06:05:22;;;;;;;10.07;9.47;;;11.50;36.00;;;;;;5037438;28;20695;-80
2022/10/03 06:08:26;;;;;;;10.20;9.60;;;11.50;22.20;;;;;;5035296;28;20477;-80
2022/10/03 06:11:03;;;;;;;9.20;8.60;;;11.50;20.90;;;;;;4999587;28;20463;-80
2022/10/03 06:13:46;;;;;;;10.63;9.63;;;11.50;26.60;;;;;;5043649;28;20455;-79
2022/10/03 06:16:29;;;;;;;10.47;9.67;;;11.50;21.10;;;;;;5043885;28;20522;-78
2022/10/03 06:19:13;;;;;;;12.00;10.70;;;11.50;26.30;;;;;;5039723;28;20475;-78
2022/10/03 06:22:15;;;;;;;11.07;10.17;;;11.50;23.00;;;;;;5033479;28;20451;-78
2022/10/03 06:25:25;;;;;;;11.03;10.33;;;11.60;28.70;;;;;;5036983;28;20467;-77
2022/10/03 06:28:28;;;;;;;10.97;10.17;;;11.60;23.70;;;;;;5039682;28;20538;-77
2022/10/03 06:31:27;;;;;;;10.67;9.97;;;11.50;17.40;;;;;;5032199;28;20463;-76
2022/10/03 06:34:20;;;;;;;12.90;11.87;;;11.50;31.40;;;;;;5027784;28;20475;-79
2022/10/03 06:37:37;;;;;;;16.73;11.13;;;11.50;38.60;;;;;;5039033;28;20512;-79
2022/10/03 06:40:34;;;;;;;14.87;13.43;;;11.60;36.10;;;;;;4985054;28;20678;-79
2022/10/03 06:43:34;;;;;;;12.20;11.30;;;11.60;38.70;;;;;;5040260;28;20465;-78
2022/10/03 06:46:32;;;;;;;14.17;12.87;;;11.60;38.70;;;;;;5033775;28;21246;-79
2022/10/03 06:49:27;;;;;;;13.07;12.17;;;11.80;38.70;;;;;;5045161;28;20447;-79
2022/10/03 06:52:28;;;;;;;13.57;12.70;;;11.90;28.20;;;;;;5044014;28;20456;-78
2022/10/03 06:55:28;;;;;;;14.73;13.33;;;11.90;27.40;;;;;;5003767;28;20514;-80
2022/10/03 06:58:23;;;;;;;14.17;12.87;;;12.00;23.30;;;;;;5037990;28;20503;-79
2022/10/03 07:01:00;;;;;;;12.00;11.10;;;12.00;31.40;;;;;;5042139;28;20536;-79
2022/10/03 07:04:00;;;;;;;12.20;11.30;;;11.90;33.10;;;;;;5039010;28;20991;-79
2022/10/03 07:06:53;;;;;;;13.40;12.30;;;12.00;39.30;;;;;;5043321;28;20476;-79
2022/10/03 07:10:04;;;;;;;13.10;12.00;;;12.00;39.00;;;;;;5045024;28;20489;-79
2022/10/03 07:13:01;;;;;;;13.20;11.93;;;12.00;30.80;;;;;;5026999;28;21353;-79
2022/10/03 07:15:52;;;;;;;14.10;12.43;;;12.00;39.50;;;;;;5033975;28;20563;-81
2022/10/03 07:19:14;;;;;;;14.67;13.37;;;12.00;30.00;;;;;;5043047;28;20498;-80
2022/10/03 07:22:19;;;;;;;14.27;12.93;;;12.00;25.20;;;;;;5016688;28;20469;-79
2022/10/03 07:25:35;;;;;;;15.33;13.90;;;12.00;40.00;;;;;;5049022;28;20439;-79
2022/10/03 07:28:52;;;;;;;13.70;12.60;;;12.10;47.70;;;;;;5046893;28;20539;-78
2022/10/03 07:31:33;;;;;;;15.17;13.90;;;12.10;35.90;;;;;;5040521;28;20456;-80
2022/10/03 07:34:32;;;;;;;15.27;13.90;;;12.10;28.10;;;;;;5048564;28;20559;-80
2022/10/03 07:40:24;;;;;;;21.50;14.00;;;12.10;25.60;;;;;;5035715;28;20553;-80
2022/10/03 07:43:22;;;;;;;16.83;15.50;;;12.10;36.60;;;;;;5037061;28;20938;-81
2022/10/03 07:46:31;;;;;;;16.67;14.90;;;12.10;29.60;;;;;;5044807;28;20487;-81
2022/10/03 07:49:21;;;;;;;16.90;15.23;;;12.10;42.80;;;;;;5026325;28;20475;-81
2022/10/03 07:52:11;;;;;;;18.47;16.57;;;12.20;45.80;;;;;;4998334;28;20585;-80
2022/10/03 07:54:59;;;;;;;17.77;16.07;;;12.20;7.20;;;;;;5037865;28;20511;-80
2022/10/03 07:57:55;;;;;;;18.47;16.77;;;12.20;6.60;;;;;;5040121;28;20475;-79
2022/10/03 08:00:27;;;;;;;18.10;16.40;;;12.20;13.20;;;;;;5037098;28;21244;-79
2022/10/03 08:03:50;;;;;;;17.93;15.70;;;12.30;23.40;;;;;;5049625;28;20487;-78
2022/10/03 08:06:25;;;;;;;20.93;18.67;;;12.30;22.50;;;;;;5021985;28;20787;-80
2022/10/03 08:09:28;;;;;;;19.77;18.10;;;12.20;21.00;;;;;;5040260;28;20456;-81
2022/10/03 08:12:41;;;;;;;21.03;18.93;;;12.20;27.60;;;;;;5036975;28;20518;-79
2022/10/03 08:15:20;;;;;;;20.30;18.33;;;12.20;19.20;;;;;;5024698;28;20514;-80
2022/10/03 08:18:36;;;;;;;19.47;17.77;;;12.30;26.50;;;;;;5034869;28;20517;-80
2022/10/03 08:21:12;;;;;;;20.43;18.53;;;12.30;23.60;;;;;;5046009;28;20458;-80
2022/10/03 08:24:13;;;;;;;18.97;17.07;;;12.40;11.90;;;;;;5048559;28;20460;-80
2022/10/03 08:26:57;;;;;;;20.70;18.50;;;12.40;6.80;;;;;;5041335;28;20563;-79
2022/10/03 08:30:04;;;;;;;20.07;18.40;;;12.40;15.70;;;;;;5046262;28;21010;-80
2022/10/03 08:33:04;;;;;;;18.40;16.90;;;12.50;20.10;;;;;;5041967;28;20814;-80
2022/10/03 08:36:05;;;;;;;17.20;16.00;;;12.50;5.00;;;;;;5023766;28;21076;-80
2022/10/03 08:38:52;;;;;;;17.87;16.37;;;12.60;1.00;;;;;;5046434;28;20568;-79
2022/10/03 08:42:00;;;;;;;16.40;15.17;;;12.60;1.00;;;;;;5020027;28;20532;-79
2022/10/03 08:45:07;;;;;;;16.33;15.23;;;12.70;1.00;;;;;;5047927;28;20948;-80
2022/10/03 08:48:09;;;;;;;17.53;16.07;;;12.70;1.00;;;;;;5037734;28;20503;-80
2022/10/03 08:50:57;;;;;;;17.33;15.70;;;12.80;1.00;;;;;;5010205;28;20999;-80
2022/10/03 08:53:54;;;;;;;16.77;15.07;;;12.70;1.00;;;;;;5034007;28;20831;-80
2022/10/03 08:56:28;;;;;;;17.20;15.70;;;12.60;1.00;;;;;;5043946;28;20492;-80
2022/10/03 08:59:23;;;;;;;17.60;16.00;;;12.70;1.00;;;;;;5025319;28;20457;-80
2022/10/03 09:02:42;;;;;;;17.10;15.57;;;12.70;1.00;;;;;;5035014;28;20461;-80
2022/10/03 09:05:39;;;;;;;15.80;14.20;;;12.70;1.00;;;;;;4983359;28;20454;-80
2022/10/03 09:08:45;;;;;;;15.70;14.60;;;12.70;1.00;;;;;;4966390;28;20481;-80
2022/10/03 09:12:01;;;;;;;17.13;15.80;;;12.90;1.00;;;;;;5038493;28;20471;-80
2022/10/03 09:14:51;;;;;;;17.13;15.67;;;12.90;1.00;;;;;;4998443;28;20455;-79
2022/10/03 09:17:51;;;;;;;16.80;15.30;;;13.00;1.00;;;;;;5046716;28;20474;-81
2022/10/03 09:20:53;;;;;;;17.33;16.00;;;15.20;1.00;;;;;;5045214;28;20997;-81
2022/10/03 09:23:52;;;;;;;16.07;14.77;;;15.50;99.90;;;;;;5045508;28;20451;-80
2022/10/03 09:26:54;;;;;;;17.87;16.23;;;15.20;36.70;;;;;;5030676;28;20851;-80
2022/10/03 09:29:59;;;;;;;16.70;15.30;;;15.80;1.00;;;;;;5033731;28;20468;-80
2022/10/03 09:32:59;;;;;;;16.50;15.40;;;15.50;1.00;;;;;;5032356;28;20551;-79
2022/10/03 09:35:54;;;;;;;14.80;13.73;;;17.00;1.00;;;;;;5019678;28;20487;-80
2022/10/03 09:38:54;;;;;;;13.90;12.80;;;18.70;1.00;;;;;;5044467;28;20502;-81
2022/10/03 09:41:48;;;;;;;14.50;12.60;;;17.50;1.00;;;;;;5031887;28;20484;-81
2022/10/03 09:44:47;;;;;;;14.97;12.80;;;16.50;99.90;;;;;;5040604;28;20822;-80
2022/10/03 09:48:03;;;;;;;13.83;12.50;;;15.60;1.00;;;;;;5025412;28;20489;-80
2022/10/03 09:51:05;;;;;;;13.30;12.13;;;15.10;1.00;;;;;;5034743;28;20451;-80
2022/10/03 09:54:16;;;;;;;12.73;11.50;;;14.70;1.00;;;;;;5035056;28;20498;-80
2022/10/03 09:57:05;;;;;;;13.70;11.83;;;14.30;99.90;;;;;;5038060;28;20491;-80
2022/10/03 09:59:58;;;;;;;15.57;13.90;;;14.40;1.00;;;;;;5022769;28;20451;-80
2022/10/03 10:03:01;;;;;;;13.57;12.37;;;14.70;99.90;;;;;;5046111;28;20721;-80
2022/10/03 10:05:57;;;;;;;13.30;12.30;;;15.00;3.60;;;;;;5045780;28;20568;-81
2022/10/03 10:09:10;;;;;;;12.57;11.53;;;16.70;99.90;;;;;;5041660;28;20476;-81
2022/10/03 10:12:11;;;;;;;10.83;9.93;;;19.50;1.00;;;;;;5017061;28;20456;-80
2022/10/03 10:15:21;;;;;;;10.10;9.40;;;19.30;99.90;;;;;;5014758;28;20456;-80
2022/10/03 10:18:21;;;;;;;9.37;8.47;;;21.50;99.90;;;;;;5026599;28;20553;-81
2022/10/03 10:21:21;;;;;;;7.30;6.70;;;24.40;99.90;;;;;;5036710;28;20501;-81
2022/10/03 10:24:02;;;;;;;8.30;7.53;;;26.80;99.90;;;;;;5042545;28;20452;-81
2022/10/03 10:27:04;;;;;;;7.17;6.50;;;28.60;99.90;;;;;;5046971;28;20482;-81
2022/10/03 10:30:07;;;;;;;5.20;4.80;;;29.70;99.90;;;;;;5038755;28;20462;-81
2022/10/03 10:33:00;;;;;;;8.70;5.80;;;30.50;99.90;;;;;;5041953;28;20451;-81
2022/10/03 10:36:09;;;;;;;6.80;6.10;;;31.20;99.90;;;;;;5036917;28;20447;-81
2022/10/03 10:39:27;;;;;;;7.57;5.77;;;27.30;99.90;;;;;;5036841;28;20476;-81
2022/10/03 10:42:30;;;;;;;8.70;6.53;;;23.50;99.90;;;;;;4980579;28;20461;-80
2022/10/03 10:45:24;;;;;;;7.07;6.13;;;21.40;99.90;;;;;;5002467;28;20472;-80
2022/10/03 10:48:42;;;;;;;8.90;5.80;;;19.70;99.90;;;;;;5044548;28;21002;-80
2022/10/03 10:51:51;;;;;;;6.30;5.80;;;19.00;99.90;;;;;;5045346;28;20474;-82
2022/10/03 10:55:02;;;;;;;5.63;5.20;;;22.20;99.90;;;;;;5045796;28;20510;-80
2022/10/03 10:58:32;;;;;;;9.33;5.57;;;21.00;99.90;;;;;;5035932;28;20483;-81
2022/10/03 11:01:48;;;;;;;8.23;4.70;;;19.80;99.90;;;;;;5030117;28;20471;-79
2022/10/03 11:04:51;;;;;;;5.87;5.27;;;18.50;99.90;;;;;;4971449;28;20497;-79
2022/10/03 11:08:15;;;;;;;7.33;5.03;;;17.90;99.90;;;;;;5036924;28;21885;-78
2022/10/03 11:11:04;;;;;;;5.23;4.83;;;19.30;99.90;;;;;;5038580;28;20466;-81
2022/10/03 11:14:06;;;;;;;8.93;5.60;;;18.60;99.90;;;;;;5034700;28;20807;-79
2022/10/03 11:17:11;;;;;;;13.00;6.30;;;18.10;99.90;;;;;;5033619;28;20577;-79
2022/10/03 11:20:05;;;;;;;7.67;6.53;;;17.50;99.90;;;;;;5032996;28;20488;-79
2022/10/03 11:23:14;;;;;;;10.73;5.50;;;17.00;99.90;;;;;;5005397;28;20868;-79
2022/10/03 11:26:33;;;;;;;7.03;5.03;;;16.70;99.90;;;;;;5020714;28;20555;-79
2022/10/03 11:29:43;;;;;;;5.30;4.80;;;16.40;1.00;;;;;;5037534;28;20456;-79
2022/10/03 11:32:56;;;;;;;5.97;5.47;;;16.20;1.00;;;;;;5004326;28;20448;-80
2022/10/03 11:36:08;;;;;;;6.13;5.47;;;16.10;85.90;;;;;;4999452;28;20474;-78
2022/10/03 11:38:49;;;;;;;5.80;5.30;;;16.00;99.90;;;;;;4979813;28;21473;-78
2022/10/03 11:41:30;;;;;;;8.03;6.47;;;16.00;99.90;;;;;;5018073;28;20540;-79
2022/10/03 11:44:12;;;;;;;8.17;6.37;;;15.90;99.90;;;;;;5038239;28;20456;-80
2022/10/03 11:46:51;;;;;;;9.37;7.40;;;15.80;1.00;;;;;;5032633;28;20472;-81
2022/10/03 11:49:48;;;;;;;8.07;7.27;;;15.70;1.00;;;;;;5042533;28;20458;-82
2022/10/03 11:52:28;;;;;;;8.57;7.73;;;15.60;1.00;;;;;;5036697;28;20535;-80
2022/10/03 11:55:14;;;;;;;11.93;8.17;;;15.50;1.00;;;;;;5022099;28;20456;-80
2022/10/03 11:57:49;;;;;;;8.70;7.80;;;15.60;99.90;;;;;;5044322;28;20483;-81
2022/10/03 12:00:19;;;;;;;13.40;8.50;;;15.70;26.40;;;;;;5043457;28;20495;-80
2022/10/03 12:03:03;;;;;;;11.80;7.30;;;15.80;99.90;;;;;;5040709;28;20512;-80
2022/10/03 12:05:48;;;;;;;11.30;10.20;;;15.70;99.90;;;;;;5044989;28;20519;-80
2022/10/03 12:11:21;;;;;;;10.27;8.70;;;16.00;99.90;;;;;;5042961;28;20457;-80
2022/10/03 12:14:06;;;;;;;9.10;7.13;;;16.40;1.00;;;;;;5043155;28;20803;-80
2022/10/03 12:16:56;;;;;;;8.80;8.00;;;16.30;99.90;;;;;;5049440;28;20492;-79
2022/10/03 12:19:30;;;;;;;7.80;7.10;;;16.30;1.00;;;;;;5054441;28;20517;-80
2022/10/03 12:22:08;;;;;;;10.10;7.47;;;16.40;18.10;;;;;;5046401;28;20448;-79
2022/10/03 12:24:40;;;;;;;8.83;7.90;;;16.30;99.90;;;;;;5049116;28;20498;-80
2022/10/03 12:27:20;;;;;;;8.87;7.33;;;16.30;1.00;;;;;;5043592;28;20472;-79
2022/10/03 12:29:57;;;;;;;8.00;7.00;;;16.40;99.90;;;;;;5035295;28;20455;-80
2022/10/03 12:32:37;;;;;;;6.90;6.30;;;16.30;1.00;;;;;;5043910;28;20468;-80
2022/10/03 12:35:24;;;;;;;6.80;5.97;;;16.30;99.90;;;;;;5052934;28;20455;-81
2022/10/03 12:38:04;;;;;;;6.40;5.67;;;16.40;99.90;;;;;;5050263;28;20646;-80
2022/10/03 12:40:36;;;;;;;19.93;13.07;;;16.30;99.90;;;;;;5044690;28;20448;-80
2022/10/03 12:43:18;;;;;;;7.03;6.47;;;16.30;1.00;;;;;;5047511;28;20459;-80
2022/10/03 12:45:52;;;;;;;8.20;5.77;;;16.20;99.90;;;;;;5041489;28;20468;-80
2022/10/03 12:48:42;;;;;;;8.43;6.93;;;16.10;99.90;;;;;;5036101;28;20577;-79
2022/10/03 12:51:22;;;;;;;6.60;5.90;;;16.00;1.00;;;;;;5044447;28;20480;-80
2022/10/03 12:54:04;;;;;;;5.30;4.90;;;16.00;99.90;;;;;;5037773;28;20441;-80
2022/10/03 12:56:43;;;;;;;6.07;5.47;;;16.00;1.00;;;;;;5046574;28;20537;-81
2022/10/03 12:59:25;;;;;;;7.27;5.40;;;16.20;61.00;;;;;;5042889;28;20488;-79
2022/10/03 13:02:28;;;;;;;8.70;5.77;;;16.30;99.90;;;;;;5048227;28;20446;-79
2022/10/03 13:05:28;;;;;;;6.40;5.43;;;16.60;99.90;;;;;;5046602;28;20540;-79
2022/10/03 13:08:01;;;;;;;5.30;4.90;;;16.60;1.00;;;;;;5034763;28;20482;-80
2022/10/03 13:10:40;;;;;;;5.83;5.20;;;16.50;1.00;;;;;;5039810;28;20456;-79
2022/10/03 13:13:32;;;;;;;6.90;4.60;;;16.30;1.00;;;;;;5042564;28;20461;-80
2022/10/03 13:16:17;;;;;;;4.67;4.27;;;16.20;1.00;;;;;;5038438;28;20459;-79
2022/10/03 13:18:52;;;;;;;5.57;4.67;;;16.20;1.00;;;;;;5037675;28;20481;-80
2022/10/03 13:21:29;;;;;;;5.00;4.50;;;16.00;1.00;;;;;;5043324;28;20460;-80
2022/10/03 13:24:31;;;;;;;9.37;4.73;;;16.10;1.00;;;;;;5050400;28;20452;-80
2022/10/03 13:27:12;;;;;;;6.10;4.43;;;16.30;1.00;;;;;;5044384;28;20537;-80
2022/10/03 13:29:43;;;;;;;5.27;4.80;;;16.30;1.00;;;;;;5046768;28;20455;-81
2022/10/03 13:32:37;;;;;;;4.33;3.97;;;16.30;1.00;;;;;;5046164;28;20552;-80
2022/10/03 13:38:51;;;;;;;9.30;5.30;;;16.10;1.00;;;;;;5034032;28;20794;-81
2022/10/03 13:41:30;;;;;;;4.67;4.27;;;16.20;1.00;;;;;;5038017;28;21473;-81
2022/10/03 13:44:03;;;;;;;4.53;4.13;;;16.40;1.00;;;;;;5016130;28;20465;-82
2022/10/03 13:46:38;;;;;;;4.93;4.53;;;16.60;1.00;;;;;;5030139;28;20566;-81
2022/10/03 13:49:17;;;;;;;5.10;4.60;;;16.50;1.00;;;;;;5042764;28;20446;-80
2022/10/03 13:51:58;;;;;;;8.00;3.80;;;16.50;1.00;;;;;;5049009;28;20460;-81
2022/10/03 13:55:04;;;;;;;3.90;3.50;;;16.70;99.90;;;;;;5043685;28;20461;-82
2022/10/03 13:57:37;;;;;;;4.40;4.00;;;16.80;1.00;;;;;;5043320;28;21433;-80
2022/10/03 14:00:11;;;;;;;4.23;3.80;;;17.10;1.00;;;;;;5035000;28;20471;-81
2022/10/03 14:03:23;;;;;;;4.13;3.77;;;17.20;99.90;;;;;;5043681;28;20453;-81
2022/10/03 14:06:02;;;;;;;8.47;3.90;;;17.30;66.10;;;;;;4978896;28;20468;-81
2022/10/03 14:08:58;;;;;;;4.03;3.70;;;17.20;1.00;;;;;;4985160;28;20648;-81
2022/10/03 14:11:36;;;;;;;4.30;3.90;;;17.10;1.00;;;;;;5016377;28;20463;-80
2022/10/03 14:14:39;;;;;;;5.40;3.93;;;16.80;1.00;;;;;;5042629;28;20459;-80
2022/10/03 14:17:13;;;;;;;5.63;5.13;;;16.80;1.00;;;;;;5039852;28;20535;-83
2022/10/03 14:20:04;;;;;;;4.40;3.43;;;16.70;16.10;;;;;;5026941;28;20495;-82
2022/10/03 14:22:48;;;;;;;3.57;3.27;;;16.70;1.00;;;;;;5030181;28;20454;-83
2022/10/03 14:25:25;;;;;;;3.97;3.63;;;16.60;99.90;;;;;;5043092;28;20507;-81
2022/10/03 14:27:56;;;;;;;3.63;3.07;;;16.70;99.90;;;;;;5042622;28;20988;-82
2022/10/03 14:30:30;;;;;;;8.03;3.57;;;16.60;1.00;;;;;;5041008;28;20451;-81
2022/10/03 14:33:17;;;;;;;5.73;3.70;;;16.60;1.00;;;;;;5037802;28;20458;-79
2022/10/03 14:36:01;;;;;;;3.60;3.30;;;16.40;18.50;;;;;;5042025;28;20465;-79
2022/10/03 14:38:57;;;;;;;4.73;4.33;;;16.30;1.00;;;;;;5032321;28;20508;-79
2022/10/03 14:41:38;;;;;;;3.67;3.47;;;16.20;1.00;;;;;;5034571;28;20456;-80
2022/10/03 14:44:10;;;;;;;5.57;4.17;;;16.20;99.90;;;;;;5038463;28;20549;-80
2022/10/03 14:46:46;;;;;;;6.23;3.13;;;16.20;3.80;;;;;;5033522;28;20489;-79
2022/10/03 14:49:20;;;;;;;4.20;3.80;;;16.20;1.00;;;;;;5033143;28;20546;-79
2022/10/03 14:52:25;;;;;;;4.90;3.93;;;16.10;1.00;;;;;;5039844;28;20455;-80